Time;durP1;ratioP1;P1;durP2;ratioP2;P2;SDS_P1;SDS_P2;PMS_P1;PMS_P2;Temp;Humidity;BMP_temperature;BMP_pressure;BME280_temperature;BME280_humidity;BME280_pressure;Samples;Min_cycle;Max_cycle;Signal;HPM_P1;HPM_P2
2022/08/22 00:02:30;;;;;;;14.80;8.38;;;;;;;21.32;36.94;100162.28;5085888;28;20192;-54
2022/08/22 00:05:18;;;;;;;18.58;9.23;;;;;;;21.29;37.06;100158.09;5082643;28;20040;-54
2022/08/22 00:08:07;;;;;;;11.53;8.47;;;;;;;21.26;37.24;100158.28;5086859;28;20051;-53
2022/08/22 00:10:39;;;;;;;15.52;10.25;;;;;;;21.27;37.19;100162.63;5080513;28;20315;-54
2022/08/22 00:13:14;;;;;;;18.20;9.95;;;;;;;20.98;37.41;100111.78;5075784;28;20417;-55
2022/08/22 00:16:11;;;;;;;17.95;11.82;;;;;;;21.27;37.11;100172.34;5084707;28;20117;-50
2022/08/22 00:18:50;;;;;;;17.30;11.00;;;;;;;21.26;37.18;100168.00;5071429;28;20097;-54
2022/08/22 00:21:31;;;;;;;;;;;;;;;21.25;37.19;100169.81;5052587;28;20519;-53
2022/08/22 00:24:13;;;;;;;16.25;10.90;;;;;;;21.21;37.24;100171.00;5085955;28;19920;-53
2022/08/22 00:26:50;;;;;;;19.95;12.30;;;;;;;21.19;37.55;100170.28;5069202;28;20056;-54
2022/08/22 00:29:25;;;;;;;21.42;11.95;;;;;;;21.18;37.53;100167.72;5083238;28;20045;-57
2022/08/22 00:32:06;;;;;;;21.30;13.18;;;;;;;21.16;37.56;100175.75;5077868;28;20032;-56
2022/08/22 00:34:38;;;;;;;21.25;13.70;;;;;;;21.18;37.73;100170.38;5083194;28;20069;-57
2022/08/22 00:37:31;;;;;;;28.08;16.35;;;;;;;21.17;37.67;100169.53;5074470;28;20063;-56
2022/08/22 00:40:11;;;;;;;32.28;16.67;;;;;;;21.15;37.72;100166.13;5075410;28;20075;-56
2022/08/22 00:43:07;;;;;;;27.17;15.40;;;;;;;21.14;37.84;100173.22;5084717;28;20040;-56
2022/08/22 00:45:41;;;;;;;26.13;15.95;;;;;;;21.13;37.77;100168.88;5058602;28;20090;-56
2022/08/22 00:48:30;;;;;;;24.98;15.05;;;;;;;21.13;37.91;100168.03;5090270;28;20130;-55
2022/08/22 00:51:16;;;;;;;28.27;15.80;;;;;;;21.13;38.07;100160.94;5084972;28;20043;-55
2022/08/22 00:53:47;;;;;;;26.92;17.05;;;;;;;21.12;38.20;100171.63;5085005;28;20043;-54
2022/08/22 00:56:34;;;;;;;30.27;18.70;;;;;;;21.11;38.07;100175.19;5084932;28;20055;-52
2022/08/22 00:59:05;;;;;;;32.75;18.73;;;;;;;21.11;38.04;100173.41;5081185;28;20071;-53
2022/08/22 01:01:34;;;;;;;31.88;17.70;;;;;;;20.94;38.18;100144.66;5087722;28;20541;-51
2022/08/22 01:04:22;;;;;;;28.88;18.05;;;;;;;20.96;38.29;100144.56;5075524;28;20040;-52
2022/08/22 01:07:06;;;;;;;34.53;19.13;;;;;;;21.12;38.25;100168.97;5080682;28;20047;-51
2022/08/22 01:09:49;;;;;;;33.65;20.00;;;;;;;21.11;38.26;100176.06;5090490;28;20120;-54
2022/08/22 01:12:28;;;;;;;35.88;21.48;;;;;;;21.10;38.34;100174.34;5076284;28;20051;-53
2022/08/22 01:15:03;;;;;;;;;;;;;;;21.12;38.37;100184.84;5086848;28;20040;-51
2022/08/22 01:17:48;;;;;;;29.17;18.80;;;;;;;21.07;38.37;100182.50;5070209;28;19959;-52
2022/08/22 01:20:52;;;;;;;37.90;23.55;;;;;;;21.07;38.24;100187.81;5078321;28;20067;-51
2022/08/22 01:23:17;;;;;;;41.45;22.15;;;;;;;21.08;38.21;100191.28;5054804;28;20045;-54
2022/08/22 01:26:03;;;;;;;35.88;22.05;;;;;;;21.10;38.18;100197.31;5089338;28;20081;-55
2022/08/22 01:29:01;;;;;;;39.20;23.38;;;;;;;21.12;38.07;100192.75;5087328;28;20043;-54
2022/08/22 01:31:43;;;;;;;38.83;23.42;;;;;;;21.12;38.06;100195.41;5088176;28;20036;-54
2022/08/22 01:34:30;;;;;;;46.15;24.50;;;;;;;21.13;38.28;100194.47;5092045;28;20059;-55
2022/08/22 01:37:23;;;;;;;37.83;22.83;;;;;;;21.09;38.67;100191.16;5086843;28;20062;-54
2022/08/22 01:40:28;;;;;;;38.45;23.95;;;;;;;21.05;38.99;100187.06;5063105;28;20049;-53
2022/08/22 01:43:05;;;;;;;40.97;23.88;;;;;;;21.04;39.74;100184.53;5083747;28;20127;-56
2022/08/22 01:45:57;;;;;;;43.53;24.17;;;;;;;21.01;40.21;100187.38;5084675;28;20094;-54
2022/08/22 01:48:33;;;;;;;38.05;23.40;;;;;;;20.99;40.65;100182.19;5065152;28;20045;-53
2022/08/22 01:51:10;;;;;;;40.88;25.08;;;;;;;21.00;40.75;100190.97;5080690;28;20040;-51
2022/08/22 01:53:55;;;;;;;42.25;25.05;;;;;;;21.00;40.52;100189.16;5077226;28;20097;-53
2022/08/22 01:56:24;;;;;;;38.60;23.23;;;;;;;20.98;41.24;100193.75;5082814;28;20036;-54
2022/08/22 01:59:11;;;;;;;44.35;23.73;;;;;;;20.98;40.84;100196.38;5083990;28;20466;-54
2022/08/22 02:02:06;;;;;;;40.60;24.17;;;;;;;20.98;40.56;100198.19;5086164;28;20044;-53
2022/08/22 02:04:41;;;;;;;37.00;23.35;;;;;;;20.64;40.19;100142.34;5087854;28;20048;-53
2022/08/22 02:07:17;;;;;;;33.88;21.67;;;;;;;20.94;40.19;100191.38;5082769;28;20050;-51
2022/08/22 02:09:58;;;;;;;37.22;22.98;;;;;;;20.94;40.19;100197.53;5078965;28;20135;-54
2022/08/22 02:12:48;;;;;;;40.10;24.35;;;;;;;20.95;39.98;100193.06;5072531;28;20039;-55
2022/08/22 02:15:20;;;;;;;39.83;22.30;;;;;;;21.00;40.08;100180.38;5072909;28;20123;-53
2022/08/22 02:18:02;;;;;;;34.70;22.98;;;;;;;20.77;40.52;100131.78;5084575;28;20087;-53
2022/08/22 02:20:42;;;;;;;34.60;21.65;;;;;;;21.08;40.31;100175.44;5092255;28;20169;-55
2022/08/22 02:23:29;;;;;;;37.83;22.50;;;;;;;21.09;40.48;100170.00;5077514;28;20051;-52
2022/08/22 02:26:05;;;;;;;32.35;21.27;;;;;;;21.11;40.72;100159.34;5081911;28;20044;-56
2022/08/22 02:28:36;;;;;;;38.00;23.00;;;;;;;21.11;40.99;100151.41;5086302;28;20161;-52
2022/08/22 02:31:08;;;;;;;35.20;21.58;;;;;;;20.94;41.17;100114.72;5084610;28;20071;-54
2022/08/22 02:33:55;;;;;;;35.58;22.13;;;;;;;21.08;41.37;100164.84;5088381;28;20076;-53
2022/08/22 02:36:38;;;;;;;45.72;29.70;;;;;;;21.04;41.20;100177.41;5083057;28;20462;-53
2022/08/22 02:40:00;;;;;;;48.92;31.20;;;;;;;21.01;41.29;100180.28;5087271;28;20457;-55
2022/08/22 02:42:42;;;;;;;53.13;32.08;;;;;;;20.94;41.03;100173.72;5059540;28;20414;-57
2022/08/22 02:45:35;;;;;;;49.25;32.00;;;;;;;20.99;41.18;100171.59;5075908;28;20051;-52
2022/08/22 02:48:04;;;;;;;59.72;35.33;;;;;;;20.99;41.28;100168.97;5059459;28;20037;-52
2022/08/22 02:50:45;;;;;;;;;;;;;;;20.99;41.02;100168.97;5089576;28;20142;-49
2022/08/22 02:53:16;;;;;;;64.22;37.85;;;;;;;20.66;40.92;100127.22;5085601;28;19916;-54
2022/08/22 02:56:03;;;;;;;56.28;36.47;;;;;;;20.95;41.11;100171.94;5078747;28;20055;-50
2022/08/22 02:58:44;;;;;;;61.85;39.20;;;;;;;20.94;41.06;100167.59;5069499;28;20109;-53
2022/08/22 03:01:23;;;;;;;63.83;38.70;;;;;;;20.92;41.13;100172.16;5059378;28;20032;-53
2022/08/22 03:03:51;;;;;;;62.63;38.80;;;;;;;20.92;41.19;100188.00;5089084;28;20063;-51
2022/08/22 03:06:39;;;;;;;63.05;39.70;;;;;;;20.90;41.30;100197.84;5089287;28;20047;-53
2022/08/22 03:09:13;;;;;;;66.68;40.38;;;;;;;20.89;41.45;100204.06;5056734;28;20039;-54
2022/08/22 03:11:43;;;;;;;57.28;36.58;;;;;;;20.88;41.60;100194.47;5073121;28;20500;-52
2022/08/22 03:14:53;;;;;;;57.25;36.30;;;;;;;20.88;41.92;100191.84;5076398;28;20040;-53
2022/08/22 03:17:29;;;;;;;61.65;38.70;;;;;;;20.86;41.96;100197.22;5069304;28;20056;-51
2022/08/22 03:20:02;;;;;;;59.90;37.03;;;;;;;20.87;41.90;100204.19;5078079;28;20450;-53
2022/08/22 03:22:47;;;;;;;61.85;38.35;;;;;;;20.87;41.92;100196.28;5087922;28;20067;-52
2022/08/22 03:25:29;;;;;;;64.38;37.53;;;;;;;20.92;42.20;100201.22;5087903;28;20040;-54
2022/08/22 03:28:05;;;;;;;59.08;37.42;;;;;;;20.78;42.15;100172.28;5059166;28;20040;-54
2022/08/22 03:30:42;;;;;;;59.00;37.33;;;;;;;20.95;42.38;100207.16;5080879;28;20036;-55
2022/08/22 03:33:22;;;;;;;64.78;38.38;;;;;;;20.99;42.36;100202.47;5084412;28;20044;-54
2022/08/22 03:35:50;;;;;;;55.50;36.45;;;;;;;21.02;42.28;100199.66;5091045;28;20040;-52
2022/08/22 03:38:22;;;;;;;57.13;37.42;;;;;;;21.03;42.44;100204.00;5080529;28;20135;-50
2022/08/22 03:40:59;;;;;;;69.53;37.10;;;;;;;21.02;42.50;100191.72;5079643;28;20079;-53
2022/08/22 03:43:47;;;;;;;64.78;37.90;;;;;;;21.06;42.32;100204.63;5075507;28;20043;-56
2022/08/22 03:46:24;;;;;;;60.05;36.47;;;;;;;21.08;42.31;100199.22;5078192;28;20078;-52
2022/08/22 03:49:07;;;;;;;61.15;37.20;;;;;;;21.07;42.24;100208.97;5086099;28;20077;-51
2022/08/22 03:51:54;;;;;;;56.50;36.50;;;;;;;21.08;42.15;100207.16;5050474;28;20075;-53
2022/08/22 03:54:40;;;;;;;65.90;37.25;;;;;;;21.08;42.08;100200.06;5075974;28;20104;-50
2022/08/22 03:57:30;;;;;;;59.75;36.25;;;;;;;21.10;41.99;100203.44;5075414;28;20033;-51
2022/08/22 04:00:18;;;;;;;60.55;37.00;;;;;;;21.12;42.07;100198.06;5086707;28;20082;-54
2022/08/22 04:02:59;;;;;;;57.15;36.72;;;;;;;21.13;42.16;100205.03;5071803;28;20036;-54
2022/08/22 04:05:50;;;;;;;58.95;36.63;;;;;;;21.13;42.17;100205.03;5083460;28;20047;-54
2022/08/22 04:08:47;;;;;;;61.13;37.08;;;;;;;21.12;41.99;100204.19;5083814;28;20435;-55
2022/08/22 04:11:38;;;;;;;60.47;37.92;;;;;;;21.16;42.08;100206.63;5084962;28;20040;-55
2022/08/22 04:14:12;;;;;;;54.40;36.30;;;;;;;21.18;42.24;100210.03;5076418;28;20040;-56
2022/08/22 04:16:55;;;;;;;63.28;37.60;;;;;;;21.22;42.34;100206.22;5076873;28;20044;-51
2022/08/22 04:19:47;;;;;;;57.83;37.55;;;;;;;21.24;42.30;100209.63;5076393;28;20131;-53
2022/08/22 04:22:37;;;;;;;69.55;38.35;;;;;;;21.24;42.28;100220.19;5071150;28;20075;-52
2022/08/22 04:25:22;;;;;;;56.72;39.00;;;;;;;21.26;42.29;100215.63;5077601;28;20515;-52
2022/08/22 04:28:02;;;;;;;63.30;39.05;;;;;;;21.32;42.45;100209.91;5088119;28;20117;-53
2022/08/22 04:30:52;;;;;;;64.20;37.58;;;;;;;21.36;42.42;100208.72;5087506;28;20089;-54
2022/08/22 04:33:25;;;;;;;63.58;40.55;;;;;;;21.41;42.45;100203.97;5087170;28;20040;-54
2022/08/22 04:35:57;;;;;;;65.18;40.15;;;;;;;21.44;42.30;100203.75;5059720;28;20075;-54
2022/08/22 04:38:33;;;;;;;65.10;41.22;;;;;;;21.50;42.29;100213.91;5068873;28;20055;-54
2022/08/22 04:41:12;;;;;;;71.63;40.92;;;;;;;21.51;42.34;100205.03;5068777;28;20081;-54
2022/08/22 04:43:55;;;;;;;69.10;41.20;;;;;;;21.51;42.08;100212.97;5087597;28;20071;-53
2022/08/22 04:46:37;;;;;;;67.57;41.22;;;;;;;21.50;42.27;100204.19;5088431;28;20071;-55
2022/08/22 04:49:12;;;;;;;73.32;43.03;;;;;;;21.51;42.27;100210.31;5087401;28;20131;-53
2022/08/22 04:51:42;;;;;;;73.32;43.13;;;;;;;21.51;42.15;100197.91;5091131;28;20147;-53
2022/08/22 04:54:34;;;;;;;69.03;44.10;;;;;;;21.42;42.20;100185.34;5085874;28;20047;-52
2022/08/22 04:57:06;;;;;;;76.38;43.28;;;;;;;21.65;42.20;100211.97;5090108;28;20565;-54
2022/08/22 04:59:33;;;;;;;67.45;44.40;;;;;;;21.66;42.14;100208.38;5090409;28;20039;-56
2022/08/22 05:02:05;;;;;;;64.28;43.97;;;;;;;21.73;42.24;100207.81;5084042;28;20035;-52
2022/08/22 05:04:33;;;;;;;72.75;44.33;;;;;;;21.81;42.16;100207.25;5088011;28;20047;-55
2022/08/22 05:07:17;;;;;;;71.22;46.65;;;;;;;21.72;42.20;100182.28;5089657;28;20047;-52
2022/08/22 05:09:47;;;;;;;72.43;47.38;;;;;;;21.90;41.98;100206.59;5090003;28;20052;-57
2022/08/22 05:12:19;;;;;;;79.18;47.92;;;;;;;21.89;41.96;100205.75;5073429;28;20046;-56
2022/08/22 05:14:50;;;;;;;70.30;45.75;;;;;;;21.89;42.05;100203.09;5081443;28;20040;-53
2022/08/22 05:17:20;;;;;;;76.82;47.65;;;;;;;21.92;42.01;100192.31;5084723;28;20043;-54
2022/08/22 05:19:49;;;;;;;79.78;48.85;;;;;;;22.14;42.02;100206.66;5075577;28;20074;-43
2022/08/22 05:22:20;;;;;;;75.50;47.55;;;;;;;22.33;41.77;100191.91;5081344;28;20047;-42
2022/08/22 05:24:48;;;;;;;78.30;52.70;;;;;;;22.52;41.67;100195.81;5076707;28;20035;-43
2022/08/22 05:27:19;;;;;;;78.85;49.63;;;;;;;22.45;41.12;100163.66;5091036;28;20405;-43
2022/08/22 05:29:46;;;;;;;75.78;49.58;;;;;;;22.83;41.06;100203.16;5084004;28;20044;-43
2022/08/22 05:32:22;;;;;;;76.53;50.00;;;;;;;23.01;40.79;100198.25;5083681;28;20040;-41
2022/08/22 05:34:49;;;;;;;75.28;51.80;;;;;;;22.96;40.56;100163.28;5077419;28;20035;-44
2022/08/22 05:37:21;;;;;;;79.03;52.72;;;;;;;23.09;40.57;100196.69;5073776;28;20435;-43
2022/08/22 05:39:53;;;;;;;77.10;54.22;;;;;;;23.06;40.61;100185.47;5043905;28;20054;-42
2022/08/22 05:42:28;;;;;;;79.68;53.55;;;;;;;23.06;40.54;100188.97;5076620;28;20048;-45
2022/08/22 05:44:54;;;;;;;87.22;54.80;;;;;;;23.01;40.33;100188.50;5073975;28;20093;-43
2022/08/22 05:47:26;;;;;;;85.65;53.97;;;;;;;22.92;40.38;100157.38;5076845;28;20553;-42
2022/08/22 05:49:53;;;;;;;86.53;54.70;;;;;;;23.24;40.33;100186.66;5083519;28;20035;-42
2022/08/22 05:52:41;;;;;;;79.28;54.15;;;;;;;23.48;40.11;100191.88;5081268;28;20139;-41
2022/08/22 05:55:35;;;;;;;88.97;58.20;;;;;;;23.72;39.76;100181.94;5032830;28;20041;-42
2022/08/22 05:58:04;;;;;;;82.93;56.42;;;;;;;23.87;39.50;100179.84;5045257;28;20036;-46
2022/08/22 06:00:33;;;;;;;85.47;57.28;;;;;;;24.02;39.30;100182.09;5072175;28;20103;-43
2022/08/22 06:03:27;;;;;;;93.40;60.72;;;;;;;24.12;38.86;100182.22;5068284;28;20503;-42
2022/08/22 06:05:56;;;;;;;91.68;62.55;;;;;;;24.06;38.97;100186.22;5069818;28;20093;-42
2022/08/22 06:08:30;;;;;;;94.57;60.33;;;;;;;24.02;39.01;100190.06;5072460;28;20499;-42
2022/08/22 06:11:15;;;;;;;91.07;61.58;;;;;;;24.08;38.93;100189.56;5076782;28;20044;-44
2022/08/22 06:13:46;;;;;;;86.10;59.83;;;;;;;24.27;38.75;100196.06;5059661;28;20131;-40
2022/08/22 06:16:15;;;;;;;90.38;61.78;;;;;;;24.49;38.36;100191.47;5069312;28;20044;-41
2022/08/22 06:18:43;;;;;;;91.00;61.05;;;;;;;24.42;38.46;100181.50;5067951;28;20101;-41
2022/08/22 06:21:24;;;;;;;98.90;63.70;;;;;;;24.48;38.36;100207.56;5051146;28;20063;-42
2022/08/22 06:23:55;;;;;;;93.25;61.92;;;;;;;24.28;38.36;100168.53;5084774;28;20041;-44
2022/08/22 06:26:22;;;;;;;92.20;60.92;;;;;;;24.60;38.03;100213.69;5066232;28;20051;-46
2022/08/22 06:28:52;;;;;;;91.43;63.00;;;;;;;24.85;37.44;100200.00;5068471;28;20040;-42
2022/08/22 06:31:21;;;;;;;98.75;65.85;;;;;;;24.95;37.27;100195.59;5069078;28;20904;-44
2022/08/22 06:33:55;;;;;;;96.35;64.75;;;;;;;25.10;37.32;100206.72;5066345;28;20052;-41
2022/08/22 06:36:31;;;;;;;99.80;64.47;;;;;;;25.15;36.95;100181.41;5061858;28;20599;-42
2022/08/22 06:39:17;;;;;;;97.70;67.40;;;;;;;25.31;36.67;100189.75;5068584;28;20066;-41
2022/08/22 06:45:28;;;;;;;97.63;66.53;;;;;;;25.60;35.90;100203.19;5038923;28;20511;-42
2022/08/22 06:47:56;;;;;;;97.95;64.28;;;;;;;25.55;35.95;100178.78;5074082;28;20040;-41
2022/08/22 06:50:37;;;;;;;95.15;63.60;;;;;;;25.54;35.91;100182.38;5068742;28;20179;-41
2022/08/22 06:53:07;;;;;;;97.47;62.97;;;;;;;25.66;35.78;100199.13;5048889;28;20763;-41
2022/08/22 06:55:34;;;;;;;91.13;63.17;;;;;;;25.60;35.87;100195.19;5069822;28;20098;-42
2022/08/22 06:58:12;;;;;;;90.18;60.58;;;;;;;25.43;35.72;100198.47;5068348;28;20059;-42
2022/08/22 07:00:40;;;;;;;102.25;59.85;;;;;;;25.24;35.75;100195.72;5067760;28;20178;-42
2022/08/22 07:03:07;;;;;;;94.35;62.45;;;;;;;25.09;35.81;100205.03;5069593;28;20071;-43
2022/08/22 07:05:36;;;;;;;88.80;60.42;;;;;;;24.97;35.99;100212.25;5069051;28;20040;-42
2022/08/22 07:08:20;;;;;;;;;;;;;;;24.91;36.15;100215.47;5086203;28;20079;-41
2022/08/22 07:11:18;;;;;;;89.18;59.53;;;;;;;25.02;36.73;100204.72;5068380;28;19917;-42
2022/08/22 07:13:55;;;;;;;93.43;64.63;;;;;;;25.59;36.22;100195.34;5065328;28;20032;-42
2022/08/22 07:16:32;;;;;;;93.43;63.45;;;;;;;26.59;34.25;100182.69;5067134;28;20078;-42
2022/08/22 07:18:59;;;;;;;90.25;63.78;;;;;;;28.10;32.56;100204.56;5051255;28;20056;-45
2022/08/22 07:21:30;;;;;;;98.68;65.20;;;;;;;29.47;30.82;100200.25;5069740;28;20059;-43
2022/08/22 07:23:57;;;;;;;88.50;64.13;;;;;;;30.28;29.37;100215.75;5067157;28;20045;-44
2022/08/22 07:26:40;;;;;;;87.90;60.40;;;;;;;30.77;28.32;100213.94;5065890;28;20139;-43
2022/08/22 07:29:27;;;;;;;83.70;59.55;;;;;;;30.56;27.94;100227.06;5066580;28;20044;-43
2022/08/22 07:31:58;;;;;;;83.50;58.73;;;;;;;30.30;28.41;100227.19;5067552;28;20048;-43
2022/08/22 07:34:34;;;;;;;79.95;59.58;;;;;;;30.25;28.37;100211.53;5054519;28;20037;-42
2022/08/22 07:37:05;;;;;;;83.25;59.85;;;;;;;30.11;28.30;100209.53;5067413;28;20040;-46
2022/08/22 07:39:37;;;;;;;83.95;57.85;;;;;;;30.91;27.80;100210.56;5068096;28;20043;-44
2022/08/22 07:42:10;;;;;;;98.50;60.08;;;;;;;31.74;26.50;100220.94;5067912;28;20044;-43
2022/08/22 07:44:44;;;;;;;83.47;58.25;;;;;;;32.52;25.78;100210.00;5067511;28;20377;-45
2022/08/22 07:47:15;;;;;;;83.18;59.30;;;;;;;33.40;25.01;100220.94;5072765;28;20041;-42
2022/08/22 07:49:50;;;;;;;77.18;59.20;;;;;;;33.34;24.68;100219.84;5067009;28;20040;-43
2022/08/22 07:52:17;;;;;;;89.32;61.53;;;;;;;33.25;24.61;100215.56;5064932;28;20044;-42
2022/08/22 07:54:53;;;;;;;80.63;62.15;;;;;;;33.42;24.40;100218.91;5038445;28;20048;-43
2022/08/22 07:57:40;;;;;;;80.30;60.92;;;;;;;33.89;23.78;100227.44;5067940;28;20036;-43
2022/08/22 08:00:13;;;;;;;80.15;62.60;;;;;;;34.06;23.30;100216.41;5066386;28;20431;-43
2022/08/22 08:02:53;;;;;;;84.47;63.47;;;;;;;34.50;23.29;100210.81;5064848;28;20051;-44
2022/08/22 08:05:22;;;;;;;90.18;64.95;;;;;;;34.77;22.54;100215.47;5063294;28;20028;-43
2022/08/22 08:07:48;;;;;;;89.30;62.95;;;;;;;34.89;22.60;100216.59;5068166;28;20044;-43
2022/08/22 08:10:32;;;;;;;86.25;61.85;;;;;;;35.45;21.88;100214.66;5067390;28;20113;-44
2022/08/22 08:13:02;;;;;;;81.90;64.07;;;;;;;35.40;22.09;100214.44;5076082;28;20060;-43
2022/08/22 08:15:31;;;;;;;83.88;63.55;;;;;;;35.33;21.96;100215.47;5067381;28;20044;-42
2022/08/22 08:17:59;;;;;;;82.72;62.35;;;;;;;34.24;22.47;100216.81;5066829;28;20094;-44
2022/08/22 08:20:25;;;;;;;;;;;;;;;33.58;23.20;100213.31;5068433;28;20048;-45
2022/08/22 08:22:53;;;;;;;84.22;61.08;;;;;;;33.64;23.46;100223.38;5047326;28;19916;-45
2022/08/22 08:25:22;;;;;;;90.18;62.95;;;;;;;33.42;23.64;100208.13;5069377;28;20412;-42
2022/08/22 08:30:52;;;;;;;81.10;63.28;;;;;;;33.01;23.83;100210.41;5060007;28;20049;-43
2022/08/22 08:33:20;;;;;;;87.30;63.58;;;;;;;33.40;23.98;100212.88;5061299;28;20048;-44
2022/08/22 08:35:53;;;;;;;83.57;65.32;;;;;;;33.84;23.88;100210.13;5051505;28;20098;-43
2022/08/22 08:38:27;;;;;;;93.70;68.57;;;;;;;34.20;23.39;100215.53;5067080;28;20048;-43
2022/08/22 08:41:01;;;;;;;94.22;69.57;;;;;;;34.70;22.67;100206.47;5049997;28;20447;-43
2022/08/22 08:43:41;;;;;;;96.07;73.53;;;;;;;35.86;21.77;100217.34;5068416;28;20075;-42
2022/08/22 08:46:48;;;;;;;93.75;70.80;;;;;;;36.81;20.89;100214.41;5064951;28;20048;-43
2022/08/22 08:49:27;;;;;;;93.85;69.10;;;;;;;36.47;20.92;100217.31;5068295;28;20144;-41
2022/08/22 08:52:18;;;;;;;86.68;67.25;;;;;;;36.87;20.75;100215.44;5069396;28;20167;-43
2022/08/22 08:54:56;;;;;;;83.68;67.82;;;;;;;38.04;19.83;100218.91;5069224;28;20040;-45
2022/08/22 08:57:40;;;;;;;85.93;65.03;;;;;;;39.11;18.65;100217.84;5028734;28;20094;-44
2022/08/22 09:00:14;;;;;;;89.38;66.10;;;;;;;39.77;18.04;100217.13;5065826;28;20102;-44
2022/08/22 09:02:47;;;;;;;86.53;65.63;;;;;;;40.07;17.68;100214.41;5063886;28;20067;-42
2022/08/22 09:05:16;;;;;;;81.85;66.18;;;;;;;39.75;17.83;100213.78;5066977;28;20047;-43
2022/08/22 09:08:19;;;;;;;85.18;68.40;;;;;;;38.84;18.25;100209.09;5076468;28;20056;-45
2022/08/22 09:10:47;;;;;;;84.55;70.13;;;;;;;38.93;18.23;100218.69;5052419;28;20500;-44
2022/08/22 09:13:40;;;;;;;88.05;71.15;;;;;;;38.53;18.71;100217.31;5066933;28;20090;-44
2022/08/22 09:16:11;;;;;;;89.85;70.95;;;;;;;37.84;19.36;100225.47;5066456;28;20044;-47
2022/08/22 09:19:05;;;;;;;89.85;74.35;;;;;;;37.36;19.67;100223.13;5067211;28;20518;-44
2022/08/22 09:21:49;;;;;;;91.13;74.20;;;;;;;37.34;19.48;100217.06;5068345;28;20531;-43
2022/08/22 09:24:29;;;;;;;94.05;74.13;;;;;;;36.91;20.15;100219.41;5068512;28;20523;-43
2022/08/22 09:27:01;;;;;;;90.22;69.93;;;;;;;36.59;20.75;100209.41;5067350;28;20174;-48
2022/08/22 09:29:30;;;;;;;89.97;72.00;;;;;;;37.11;20.06;100212.09;5067620;28;20072;-47
2022/08/22 09:32:04;;;;;;;95.78;75.47;;;;;;;37.60;19.81;100216.16;5071343;28;20051;-47
2022/08/22 09:35:01;;;;;;;92.78;71.80;;;;;;;37.85;20.02;100219.78;5071237;28;20124;-45
2022/08/22 09:37:58;;;;;;;97.05;71.80;;;;;;;38.16;20.15;100222.56;5066694;28;20535;-44
2022/08/22 09:40:29;;;;;;;89.75;67.93;;;;;;;37.81;19.67;100223.16;5070781;28;20045;-44
2022/08/22 09:43:05;;;;;;;82.43;64.32;;;;;;;37.43;19.87;100204.91;5071272;28;20048;-44
2022/08/22 09:45:45;;;;;;;79.40;60.75;;;;;;;37.42;20.41;100213.28;5069356;28;20504;-45
2022/08/22 09:48:37;;;;;;;74.75;58.67;;;;;;;37.93;19.55;100222.28;5070082;28;20048;-43
2022/08/22 09:51:18;;;;;;;82.32;64.13;;;;;;;38.13;19.38;100211.31;5071503;28;20443;-43
2022/08/22 09:53:49;;;;;;;74.68;60.50;;;;;;;38.72;19.38;100219.06;5071928;28;20064;-43
2022/08/22 09:56:45;;;;;;;74.20;56.83;;;;;;;39.82;18.36;100211.00;5072506;28;20044;-43
2022/08/22 09:59:41;;;;;;;54.80;46.00;;;;;;;39.52;18.12;100202.78;5071292;28;20048;-44
2022/08/22 10:02:31;;;;;;;70.32;51.80;;;;;;;39.27;18.25;100214.53;5071872;28;20546;-48
2022/08/22 10:05:05;;;;;;;58.83;46.38;;;;;;;39.36;18.36;100207.75;5052292;28;20053;-47
2022/08/22 10:07:34;;;;;;;56.13;45.50;;;;;;;40.00;17.69;100205.47;5069662;28;20057;-45
2022/08/22 10:10:21;;;;;;;53.13;40.22;;;;;;;40.00;17.00;100214.50;5069917;28;20044;-46
2022/08/22 10:13:22;;;;;;;54.80;40.85;;;;;;;39.90;17.18;100211.50;5072358;28;20040;-44
2022/08/22 10:15:55;;;;;;;53.67;42.10;;;;;;;39.93;17.43;100200.16;5071926;28;20584;-45
2022/08/22 10:18:34;;;;;;;51.92;39.53;;;;;;;40.65;17.40;100203.69;5071420;28;20526;-46
2022/08/22 10:21:35;;;;;;;41.65;31.83;;;;;;;40.33;17.07;100211.31;5070589;28;20516;-44
2022/08/22 10:24:16;;;;;;;40.22;30.17;;;;;;;39.89;17.23;100206.25;5040278;28;20093;-42
2022/08/22 10:26:57;;;;;;;37.63;27.42;;;;;;;40.17;17.02;100210.06;5051984;28;20040;-46
2022/08/22 10:30:06;;;;;;;40.95;28.55;;;;;;;40.38;16.58;100214.16;5051925;28;20068;-44
2022/08/22 10:32:59;;;;;;;38.78;30.13;;;;;;;40.78;16.71;100211.63;5032720;28;20520;-46
2022/08/22 10:35:37;;;;;;;41.55;28.50;;;;;;;41.61;16.03;100205.88;5070411;28;20072;-43
2022/08/22 10:38:06;;;;;;;35.67;28.30;;;;;;;42.47;15.71;100214.84;5070377;28;20036;-44
2022/08/22 10:40:38;;;;;;;37.50;29.00;;;;;;;43.18;14.90;100205.88;5070722;28;20138;-43
2022/08/22 10:43:13;;;;;;;36.92;29.27;;;;;;;43.09;14.76;100213.69;5070217;28;20056;-44
2022/08/22 10:45:43;;;;;;;39.85;28.98;;;;;;;42.43;15.30;100200.84;5070023;28;20048;-43
2022/08/22 10:48:32;;;;;;;32.95;25.85;;;;;;;42.50;15.48;100211.66;5070301;28;20177;-46
2022/08/22 10:51:20;;;;;;;33.10;23.40;;;;;;;42.17;15.02;100212.41;5070219;28;20500;-48
2022/08/22 10:54:28;;;;;;;28.73;20.58;;;;;;;42.10;14.84;100215.28;5069487;28;20044;-44
2022/08/22 10:56:59;;;;;;;23.63;18.70;;;;;;;41.12;15.45;100209.16;5037557;28;20064;-44
2022/08/22 10:59:33;;;;;;;30.05;21.17;;;;;;;41.15;15.04;100208.66;5071052;28;20036;-48
2022/08/22 11:02:23;;;;;;;27.65;22.45;;;;;;;41.46;15.49;100213.72;5070030;28;20044;-46
2022/08/22 11:05:07;;;;;;;29.20;20.90;;;;;;;41.60;14.90;100201.47;5070942;28;20039;-47
2022/08/22 11:07:49;;;;;;;28.98;20.65;;;;;;;41.36;15.38;100202.56;5069874;28;20566;-43
2022/08/22 11:10:20;;;;;;;28.15;22.00;;;;;;;41.13;15.73;100200.72;5063611;28;20040;-44
2022/08/22 11:13:25;;;;;;;31.35;22.23;;;;;;;42.18;15.35;100195.78;5069703;28;20055;-47
2022/08/22 11:16:05;;;;;;;27.27;19.65;;;;;;;42.36;15.20;100200.19;5047766;28;20147;-43
2022/08/22 11:18:57;;;;;;;24.85;20.05;;;;;;;42.38;15.28;100203.50;5069476;28;20049;-44
2022/08/22 11:21:38;;;;;;;26.08;20.60;;;;;;;42.18;15.22;100192.22;5069492;28;20079;-46
2022/08/22 11:24:35;;;;;;;23.60;19.17;;;;;;;41.81;15.21;100195.34;5069161;28;20432;-44
2022/08/22 11:27:23;;;;;;;22.77;16.88;;;;;;;41.31;15.60;100195.09;5069648;28;20040;-47
2022/08/22 11:29:52;;;;;;;21.65;17.20;;;;;;;40.81;15.29;100197.53;5069581;28;20040;-47
2022/08/22 11:32:18;;;;;;;17.65;14.48;;;;;;;39.94;16.17;100185.44;5070741;28;20032;-45
2022/08/22 11:35:03;;;;;;;22.55;16.08;;;;;;;40.10;16.12;100184.78;5070259;28;20040;-45
2022/08/22 11:37:29;;;;;;;20.27;14.85;;;;;;;40.66;15.86;100177.25;5070619;28;20091;-46
2022/08/22 11:40:29;;;;;;;22.65;14.55;;;;;;;40.55;16.00;100178.88;5070249;28;20076;-43
2022/08/22 11:43:48;;;;;;;16.45;12.73;;;;;;;40.16;15.78;100180.31;5070274;28;20123;-46
2022/08/22 11:46:22;;;;;;;15.10;13.10;;;;;;;39.57;16.53;100162.09;5061776;28;20062;-46
2022/08/22 11:49:22;;;;;;;18.15;11.18;;;;;;;39.30;16.93;100164.28;5052351;28;20032;-44
2022/08/22 11:52:00;;;;;;;16.75;11.20;;;;;;;40.10;16.57;100176.63;5069853;28;20041;-42
2022/08/22 11:54:34;;;;;;;15.80;10.85;;;;;;;40.14;16.28;100160.66;5069773;28;20040;-43
2022/08/22 11:57:17;;;;;;;17.58;10.70;;;;;;;40.86;15.77;100167.63;5070074;28;20092;-46
2022/08/22 12:00:05;;;;;;;16.77;10.05;;;;;;;40.25;16.24;100162.59;5066889;28;20052;-43
2022/08/22 12:02:53;;;;;;;20.17;10.38;;;;;;;39.70;16.68;100165.44;5051949;28;20051;-44
2022/08/22 12:05:33;;;;;;;12.88;9.30;;;;;;;38.91;17.27;100160.94;5068959;28;20055;-45
2022/08/22 12:08:12;;;;;;;11.63;9.07;;;;;;;38.38;17.28;100163.25;5069092;28;20036;-43
2022/08/22 12:10:47;;;;;;;15.00;9.02;;;;;;;38.27;17.75;100161.25;5050003;28;20080;-44
2022/08/22 12:13:19;;;;;;;18.60;8.98;;;;;;;38.22;17.72;100155.66;5051852;28;20076;-44
2022/08/22 12:15:56;;;;;;;17.70;8.50;;;;;;;37.80;18.00;100167.19;5068975;28;20040;-42